Time;durP1;ratioP1;P1;durP2;ratioP2;P2;SDS_P1;SDS_P2;PMS_P1;PMS_P2;Temp;Humidity;BMP_temperature;BMP_pressure;BME280_temperature;BME280_humidity;BME280_pressure;Samples;Min_cycle;Max_cycle;Signal;HPM_P1;HPM_P2
2022/07/09 00:00:00;;;;;;;1.27;1.17;;;;;;;25.22;39.04;102588.88;4995793;28;20084;-65
2022/07/09 00:02:25;;;;;;;2.80;1.30;;;;;;;25.15;39.40;102583.28;4997023;28;20033;-65
2022/07/09 00:04:51;;;;;;;1.23;1.13;;;;;;;25.13;39.39;102587.22;4963527;28;20400;-65
2022/07/09 00:07:16;;;;;;;4.35;1.80;;;;;;;25.12;39.67;102589.13;4979473;28;20101;-65
2022/07/09 00:09:41;;;;;;;1.38;1.10;;;;;;;25.09;39.69;102588.63;4995646;28;20027;-65
2022/07/09 00:12:07;;;;;;;2.28;1.33;;;;;;;25.07;39.78;102585.22;4995714;28;20030;-65
2022/07/09 00:14:33;;;;;;;5.05;2.25;;;;;;;25.04;39.94;102580.09;4995523;28;20026;-65
2022/07/09 00:16:58;;;;;;;3.60;1.50;;;;;;;25.01;39.58;102574.97;4996696;28;20030;-65
2022/07/09 00:19:23;;;;;;;2.13;1.63;;;;;;;25.02;40.54;102582.13;4995618;28;20380;-65
2022/07/09 00:21:49;;;;;;;2.50;1.38;;;;;;;25.01;39.69;102580.44;4996723;28;20026;-65
2022/07/09 00:24:14;;;;;;;4.47;1.58;;;;;;;24.99;40.31;102572.38;4995449;28;20032;-65
2022/07/09 00:26:39;;;;;;;3.67;1.42;;;;;;;24.98;39.76;102576.19;4995283;28;20034;-65
2022/07/09 00:29:05;;;;;;;5.07;1.50;;;;;;;24.98;39.72;102569.84;4978972;28;20117;-65
2022/07/09 00:31:30;;;;;;;5.10;2.05;;;;;;;24.93;39.92;102572.28;4962865;28;20023;-65
2022/07/09 00:33:55;;;;;;;4.22;1.70;;;;;;;24.86;40.16;102567.50;4996370;28;20033;-65
2022/07/09 00:36:21;;;;;;;6.25;1.90;;;;;;;24.82;40.23;102565.28;4979059;28;20062;-65
2022/07/09 00:38:46;;;;;;;2.60;1.35;;;;;;;24.78;40.72;102559.31;4995159;28;20092;-65
2022/07/09 00:41:11;;;;;;;4.53;1.40;;;;;;;24.75;40.76;102556.91;4996231;28;20030;-65
2022/07/09 00:43:37;;;;;;;5.47;1.75;;;;;;;24.73;40.88;102569.97;4978771;28;20030;-65
2022/07/09 00:46:02;;;;;;;3.28;2.50;;;;;;;24.71;40.51;102566.53;4996168;28;20150;-65
2022/07/09 00:48:28;;;;;;;2.42;1.70;;;;;;;24.67;41.02;102556.97;4978664;28;20035;-65
2022/07/09 00:50:53;;;;;;;4.95;1.77;;;;;;;24.69;41.08;102565.00;4978926;28;20421;-65
2022/07/09 00:53:22;;;;;;;7.88;2.05;;;;;;;24.64;41.32;102562.81;4993562;28;20018;-65
2022/07/09 00:55:47;;;;;;;2.30;1.60;;;;;;;24.64;40.47;102565.56;4994934;28;20484;-65
2022/07/09 00:58:16;;;;;;;3.30;1.95;;;;;;;24.58;40.79;102558.03;4994829;28;20172;-65
2022/07/09 01:00:41;;;;;;;3.30;1.75;;;;;;;24.58;40.52;102563.50;4994578;28;20022;-65
2022/07/09 01:03:07;;;;;;;2.65;1.90;;;;;;;24.53;41.50;102562.34;4994577;28;20038;-65
2022/07/09 01:05:35;;;;;;;8.45;1.63;;;;;;;24.45;40.92;102552.28;4994767;28;20085;-65
2022/07/09 01:08:03;;;;;;;5.93;1.38;;;;;;;24.42;41.33;102562.72;4994558;28;20117;-65
2022/07/09 01:10:29;;;;;;;1.92;1.33;;;;;;;24.38;41.37;102556.75;4995797;28;20022;-64
2022/07/09 01:12:55;;;;;;;7.32;1.70;;;;;;;24.38;41.19;102562.22;4962317;28;20038;-65
2022/07/09 01:15:20;;;;;;;2.22;2.05;;;;;;;24.37;41.20;102555.06;4994395;28;20480;-65
2022/07/09 01:17:46;;;;;;;2.45;1.60;;;;;;;24.37;41.36;102562.41;4995703;28;20022;-65
2022/07/09 01:20:11;;;;;;;2.78;1.80;;;;;;;24.37;41.57;102555.06;4994484;28;20081;-65
2022/07/09 01:22:37;;;;;;;4.50;1.65;;;;;;;24.38;41.05;102561.38;4994234;28;20031;-65
2022/07/09 01:25:05;;;;;;;3.35;2.00;;;;;;;24.37;41.78;102563.28;4978075;28;20481;-65
2022/07/09 01:27:30;;;;;;;4.93;2.00;;;;;;;24.35;41.67;102562.56;4977892;28;20041;-65
2022/07/09 01:29:56;;;;;;;2.65;1.50;;;;;;;24.29;41.31;102557.81;4994074;28;20058;-65
2022/07/09 01:32:21;;;;;;;3.90;2.42;;;;;;;24.26;41.87;102558.19;4994257;28;20030;-65
2022/07/09 01:34:46;;;;;;;5.05;2.13;;;;;;;24.24;42.22;102554.75;4961638;28;20121;-65
2022/07/09 01:37:12;;;;;;;2.03;1.85;;;;;;;24.19;42.29;102555.28;4977707;28;20396;-64
2022/07/09 01:39:49;;;;;;;2.40;2.03;;;;;;;24.18;42.46;102549.97;4994046;28;20076;-65
2022/07/09 01:42:16;;;;;;;1.70;1.60;;;;;;;24.13;42.40;102552.38;4995086;28;20030;-65
2022/07/09 01:44:41;;;;;;;4.88;2.10;;;;;;;24.12;41.54;102550.69;4995011;28;20507;-65
2022/07/09 01:47:06;;;;;;;2.95;1.70;;;;;;;24.09;41.66;102540.06;4993722;28;20031;-64
2022/07/09 01:49:32;;;;;;;4.10;1.88;;;;;;;24.03;41.88;102538.88;4994846;28;20105;-64
2022/07/09 01:51:57;;;;;;;2.47;1.75;;;;;;;24.02;41.78;102539.03;4993591;28;20080;-64
2022/07/09 01:54:23;;;;;;;3.72;1.73;;;;;;;24.04;41.72;102539.69;4993589;28;20026;-64
2022/07/09 01:56:48;;;;;;;3.72;2.10;;;;;;;24.02;41.73;102533.56;4994785;28;20109;-64
2022/07/09 01:59:13;;;;;;;3.47;1.95;;;;;;;24.03;41.69;102540.75;4994789;28;20436;-64
2022/07/09 02:01:39;;;;;;;4.60;1.85;;;;;;;24.03;42.56;102535.28;4994687;28;20124;-64
2022/07/09 02:04:04;;;;;;;3.35;2.67;;;;;;;24.00;42.85;102535.63;4977018;28;20049;-64
2022/07/09 02:06:30;;;;;;;5.45;2.83;;;;;;;24.01;42.46;102526.41;4993545;28;20484;-64
2022/07/09 02:08:55;;;;;;;4.43;2.33;;;;;;;23.98;42.00;102526.75;4993646;28;20053;-64
2022/07/09 02:11:21;;;;;;;4.90;2.72;;;;;;;24.01;42.06;102526.41;4994643;28;20404;-64
2022/07/09 02:13:46;;;;;;;3.58;2.25;;;;;;;23.99;42.83;102522.94;4993343;28;20083;-64
2022/07/09 02:16:12;;;;;;;5.05;2.08;;;;;;;24.01;42.46;102520.91;4994527;28;20097;-65
2022/07/09 02:18:37;;;;;;;4.22;2.25;;;;;;;24.01;42.65;102516.28;4993102;28;20026;-65
2022/07/09 02:21:04;;;;;;;3.15;2.28;;;;;;;24.03;42.33;102518.84;4994314;28;20027;-65
2022/07/09 02:23:30;;;;;;;4.18;2.78;;;;;;;24.03;43.50;102513.38;4993193;28;20109;-65
2022/07/09 02:25:55;;;;;;;5.43;2.58;;;;;;;24.05;42.78;102516.78;4994377;28;20165;-65
2022/07/09 02:28:20;;;;;;;3.00;2.05;;;;;;;24.05;42.73;102516.78;4977288;28;20539;-65
2022/07/09 02:30:46;;;;;;;5.07;2.03;;;;;;;24.04;42.93;102515.91;4994162;28;20042;-65
2022/07/09 02:33:11;;;;;;;3.35;2.30;;;;;;;24.00;42.40;102514.59;4976747;28;20037;-65
2022/07/09 02:35:37;;;;;;;3.95;2.15;;;;;;;23.97;43.18;102514.06;4976794;28;20030;-65
2022/07/09 02:38:02;;;;;;;3.85;2.33;;;;;;;23.91;42.84;102510.16;4994293;28;20109;-64
2022/07/09 02:40:27;;;;;;;4.47;2.63;;;;;;;23.92;43.06;102516.47;4992832;28;20033;-64
2022/07/09 02:42:53;;;;;;;4.13;2.38;;;;;;;23.90;43.36;102513.06;4993050;28;20034;-64
2022/07/09 02:45:18;;;;;;;4.47;2.15;;;;;;;23.86;43.16;102508.97;4994152;28;20033;-65
2022/07/09 02:47:44;;;;;;;3.13;2.28;;;;;;;23.84;42.95;102509.16;4976722;28;20093;-65
2022/07/09 02:50:09;;;;;;;8.85;2.38;;;;;;;23.78;43.00;102510.69;4992822;28;20476;-65
2022/07/09 02:52:35;;;;;;;2.85;2.10;;;;;;;23.78;42.41;102510.69;4960442;28;20042;-65
2022/07/09 02:55:00;;;;;;;8.90;2.50;;;;;;;23.73;43.32;102501.28;4992793;28;20033;-65
2022/07/09 02:57:25;;;;;;;5.82;2.30;;;;;;;23.68;42.56;102504.56;4976792;28;20054;-64
2022/07/09 02:59:51;;;;;;;6.28;2.70;;;;;;;23.62;42.75;102502.50;4992602;28;20496;-64
2022/07/09 03:02:16;;;;;;;7.43;2.05;;;;;;;23.61;43.47;102509.03;4976586;28;20034;-64
2022/07/09 03:04:41;;;;;;;8.32;2.40;;;;;;;23.56;43.27;102505.94;4992712;28;20113;-64
2022/07/09 03:07:07;;;;;;;2.75;2.22;;;;;;;23.53;43.03;102514.50;4993912;28;20030;-64
2022/07/09 03:09:32;;;;;;;4.32;2.70;;;;;;;23.48;43.30;102503.22;4976550;28;20030;-64
2022/07/09 03:11:58;;;;;;;4.20;2.85;;;;;;;23.45;43.36;102505.47;4993842;28;20046;-65
2022/07/09 03:14:24;;;;;;;3.13;2.33;;;;;;;23.41;43.59;102502.22;4992679;28;20062;-64
2022/07/09 03:16:49;;;;;;;4.97;2.50;;;;;;;23.39;42.77;102509.75;4994934;28;20034;-64
2022/07/09 03:19:15;;;;;;;5.85;2.70;;;;;;;23.37;42.95;102505.41;4997850;28;20045;-64
2022/07/09 03:21:40;;;;;;;2.63;2.33;;;;;;;23.33;43.52;102501.31;4997647;28;20033;-64
2022/07/09 03:24:07;;;;;;;5.70;3.15;;;;;;;23.30;43.02;102490.72;4980359;28;20041;-65
2022/07/09 03:26:33;;;;;;;2.97;2.60;;;;;;;23.31;43.48;102501.47;4964689;28;20026;-65
2022/07/09 03:28:58;;;;;;;4.53;2.25;;;;;;;23.29;43.29;102509.00;4997501;28;20041;-65
2022/07/09 03:31:24;;;;;;;10.27;2.78;;;;;;;23.23;44.12;102493.28;4997558;28;20025;-65
2022/07/09 03:33:53;;;;;;;3.97;2.60;;;;;;;23.24;43.60;102505.94;4996222;28;20034;-64
2022/07/09 03:36:18;;;;;;;7.38;2.90;;;;;;;23.22;44.12;102497.06;4964787;28;20488;-64
2022/07/09 03:38:43;;;;;;;3.85;2.90;;;;;;;23.20;43.56;102497.22;4979832;28;20037;-64
2022/07/09 03:41:09;;;;;;;12.88;2.85;;;;;;;23.18;43.21;102504.75;4995988;28;20499;-64
2022/07/09 03:43:34;;;;;;;5.13;2.58;;;;;;;23.15;43.78;102502.34;4980131;28;20226;-64
2022/07/09 03:46:00;;;;;;;6.35;3.20;;;;;;;23.12;43.57;102501.81;4963764;28;20034;-64
2022/07/09 03:48:25;;;;;;;6.05;3.05;;;;;;;23.08;43.20;102505.94;4997130;28;20088;-64
2022/07/09 03:50:51;;;;;;;2.92;2.50;;;;;;;23.05;44.16;102501.66;4997243;28;20030;-64
2022/07/09 03:53:16;;;;;;;12.50;3.08;;;;;;;23.06;43.58;102508.00;4979725;28;20030;-64
2022/07/09 03:55:42;;;;;;;8.13;3.65;;;;;;;23.05;44.13;102506.28;4979632;28;20037;-65
2022/07/09 03:58:07;;;;;;;3.47;2.95;;;;;;;23.03;43.80;102508.34;4995919;28;20026;-65
2022/07/09 04:00:33;;;;;;;5.90;3.13;;;;;;;23.04;44.33;102504.56;4996715;28;20030;-64
2022/07/09 04:02:58;;;;;;;3.47;2.72;;;;;;;23.04;44.56;102504.56;4996103;28;20030;-65
2022/07/09 04:05:24;;;;;;;3.47;2.80;;;;;;;23.02;44.58;102504.75;4996904;28;20031;-65
2022/07/09 04:07:49;;;;;;;6.10;3.25;;;;;;;23.01;44.15;102497.56;4995744;28;20030;-65
2022/07/09 04:10:15;;;;;;;5.18;3.25;;;;;;;23.03;44.14;102495.50;4995760;28;20081;-64
2022/07/09 04:12:40;;;;;;;5.15;3.20;;;;;;;23.11;43.76;102505.59;4995800;28;20023;-64
2022/07/09 04:15:06;;;;;;;12.23;3.72;;;;;;;23.16;44.72;102497.72;5005948;28;20049;-64
2022/07/09 04:17:31;;;;;;;8.88;3.88;;;;;;;23.23;44.70;102506.94;5016357;28;20030;-64
2022/07/09 04:19:57;;;;;;;10.23;3.83;;;;;;;23.30;44.47;102508.00;5016225;28;20022;-64
2022/07/09 04:22:22;;;;;;;4.85;3.35;;;;;;;23.39;44.89;102504.25;5015163;28;20395;-64
2022/07/09 04:24:47;;;;;;;5.70;3.75;;;;;;;23.48;44.00;102505.13;5015104;28;20395;-64
2022/07/09 04:27:13;;;;;;;5.38;4.10;;;;;;;23.60;44.59;102512.78;5016040;28;20038;-64
2022/07/09 04:29:38;;;;;;;5.05;3.70;;;;;;;23.71;44.84;102504.22;5014722;28;20481;-64
2022/07/09 04:32:04;;;;;;;7.55;3.75;;;;;;;23.84;43.85;102508.28;5014826;28;20427;-65
2022/07/09 04:34:29;;;;;;;4.55;3.83;;;;;;;23.95;44.72;102499.72;5014984;28;20026;-64
2022/07/09 04:36:55;;;;;;;9.20;3.80;;;;;;;24.03;44.40;102507.91;5014770;28;20125;-65
2022/07/09 04:39:22;;;;;;;5.85;3.92;;;;;;;24.11;44.41;102508.75;5016438;28;20116;-64
2022/07/09 04:41:47;;;;;;;4.93;3.67;;;;;;;24.21;44.22;102511.28;5016080;28;20029;-64
2022/07/09 04:44:15;;;;;;;6.07;3.58;;;;;;;24.28;43.80;102515.03;5015962;28;20033;-64
2022/07/09 04:46:41;;;;;;;6.25;3.65;;;;;;;24.35;44.77;102502.31;5014752;28;20033;-64
2022/07/09 04:49:06;;;;;;;8.10;3.95;;;;;;;24.43;44.37;102504.19;5012332;28;20034;-65
2022/07/09 04:51:31;;;;;;;8.15;3.95;;;;;;;24.51;43.78;102502.22;5008380;28;20161;-65
2022/07/09 04:53:57;;;;;;;3.55;3.22;;;;;;;24.63;43.64;102506.28;4990560;28;20022;-65
2022/07/09 04:56:22;;;;;;;8.00;4.03;;;;;;;24.73;43.96;102506.91;5011083;28;20033;-64
2022/07/09 04:58:53;;;;;;;5.97;4.03;;;;;;;24.82;43.56;102504.97;5005662;28;20116;-64
2022/07/09 05:01:20;;;;;;;7.22;4.07;;;;;;;24.95;43.99;102509.88;5005447;28;20026;-64
2022/07/09 05:03:46;;;;;;;6.18;4.25;;;;;;;25.04;43.82;102506.03;5003530;28;20035;-64
2022/07/09 05:06:16;;;;;;;8.68;4.07;;;;;;;25.16;43.54;102504.56;4987384;28;20396;-64
2022/07/09 05:08:42;;;;;;;8.75;5.00;;;;;;;25.31;43.65;102510.97;4985846;28;20121;-64
2022/07/09 05:11:07;;;;;;;5.93;4.28;;;;;;;25.41;43.69;102506.06;5004072;28;20567;-65
2022/07/09 05:13:33;;;;;;;8.85;4.32;;;;;;;25.57;43.52;102507.84;5004177;28;20396;-65
2022/07/09 05:15:58;;;;;;;8.90;4.95;;;;;;;25.65;43.22;102503.13;4986128;28;20388;-65
2022/07/09 05:18:23;;;;;;;9.43;4.70;;;;;;;25.81;43.08;102513.06;5004072;28;20030;-65
2022/07/09 05:20:49;;;;;;;9.98;5.28;;;;;;;25.91;43.26;102497.16;5002237;28;20421;-65
2022/07/09 05:23:14;;;;;;;9.32;4.95;;;;;;;25.99;43.24;102499.84;5003345;28;20038;-65
2022/07/09 05:25:40;;;;;;;8.95;5.75;;;;;;;26.07;43.13;102501.63;4969469;28;20036;-65
2022/07/09 05:28:05;;;;;;;12.02;5.45;;;;;;;26.11;42.69;102497.44;5003872;28;20038;-65
2022/07/09 05:30:36;;;;;;;7.80;4.90;;;;;;;26.17;42.51;102502.22;4988935;28;20048;-65
2022/07/09 05:33:05;;;;;;;12.45;5.40;;;;;;;26.28;42.77;102504.47;4997402;28;20030;-66
2022/07/09 05:35:30;;;;;;;16.70;5.80;;;;;;;26.37;42.83;102497.84;5013010;28;20084;-65
2022/07/09 05:37:56;;;;;;;20.10;6.68;;;;;;;26.49;42.69;102496.31;5012780;28;20034;-65
2022/07/09 05:40:22;;;;;;;9.35;6.43;;;;;;;26.63;42.80;102491.81;5012853;28;20030;-65
2022/07/09 05:42:47;;;;;;;11.77;6.68;;;;;;;26.77;42.49;102494.53;5013887;28;20368;-65
2022/07/09 05:45:12;;;;;;;14.38;7.95;;;;;;;26.90;42.32;102483.69;5014019;28;20476;-65
2022/07/09 05:47:38;;;;;;;14.90;7.32;;;;;;;27.03;42.56;102472.78;5012649;28;20033;-65
2022/07/09 05:50:04;;;;;;;10.70;7.45;;;;;;;27.18;42.57;102481.84;5012662;28;20026;-65
2022/07/09 05:52:29;;;;;;;15.15;8.02;;;;;;;27.33;42.18;102483.66;5012479;28;20038;-66
2022/07/09 05:54:55;;;;;;;14.10;8.73;;;;;;;27.52;41.66;102491.25;4996305;28;20109;-64
2022/07/09 05:57:20;;;;;;;14.80;8.07;;;;;;;27.70;42.43;102494.34;5013486;28;20029;-64
2022/07/09 05:59:45;;;;;;;14.18;8.32;;;;;;;27.88;42.13;102494.69;5012122;28;20037;-65
2022/07/09 06:02:11;;;;;;;11.73;8.05;;;;;;;28.12;41.27;102502.47;5013291;28;20064;-65
2022/07/09 06:04:36;;;;;;;15.60;8.38;;;;;;;28.27;41.57;102494.94;4995856;28;20064;-65
2022/07/09 06:07:01;;;;;;;14.32;7.72;;;;;;;28.25;41.35;102497.03;5012125;28;20030;-64
2022/07/09 06:09:27;;;;;;;20.15;8.60;;;;;;;28.27;41.38;102497.69;4979578;28;20484;-66
2022/07/09 06:11:52;;;;;;;19.77;8.98;;;;;;;28.29;41.62;102486.44;5012065;28;20100;-66
2022/07/09 06:14:19;;;;;;;16.38;8.10;;;;;;;28.42;41.13;102492.00;4995727;28;20037;-65
2022/07/09 06:16:46;;;;;;;13.70;7.15;;;;;;;28.66;41.37;102487.88;5013238;28;20404;-65
2022/07/09 06:19:12;;;;;;;16.13;8.13;;;;;;;28.85;40.48;102487.09;5011977;28;20037;-65
2022/07/09 06:21:38;;;;;;;13.35;7.63;;;;;;;29.05;41.08;102492.63;4995561;28;20030;-64
2022/07/09 06:24:03;;;;;;;14.93;7.78;;;;;;;29.23;40.40;102481.88;5013332;28;20022;-65
2022/07/09 06:26:30;;;;;;;14.45;7.03;;;;;;;29.36;39.67;102485.47;5011821;28;20034;-65
2022/07/09 06:28:55;;;;;;;9.50;7.35;;;;;;;29.52;39.24;102477.81;5012853;28;20036;-65
2022/07/09 06:31:21;;;;;;;11.27;7.30;;;;;;;29.68;39.97;102480.09;4995305;28;20022;-65
2022/07/09 06:33:46;;;;;;;15.30;6.88;;;;;;;29.89;39.57;102477.16;5012969;28;20034;-65
2022/07/09 06:36:12;;;;;;;13.80;7.03;;;;;;;29.68;39.86;102478.19;5012799;28;20029;-65
2022/07/09 06:39:44;;;;;;;11.65;7.18;;;;;;;29.67;40.15;102482.06;4995517;28;20108;-65
2022/07/09 06:41:22;;;;;;;13.27;6.32;;;;;;;29.70;40.26;102486.28;5012326;28;20037;-66
2022/07/09 06:43:48;;;;;;;12.82;6.85;;;;;;;29.91;39.84;102483.28;5012859;28;20026;-65
2022/07/09 06:46:13;;;;;;;9.63;5.65;;;;;;;30.32;38.61;102486.53;5012718;28;20156;-66
2022/07/09 06:48:38;;;;;;;8.45;5.70;;;;;;;30.49;38.94;102478.63;5012669;28;20032;-66
2022/07/09 06:51:04;;;;;;;16.40;6.20;;;;;;;30.64;38.68;102478.34;4994122;28;20056;-65
2022/07/09 06:53:29;;;;;;;9.45;5.55;;;;;;;31.00;38.11;102478.56;4995179;28;20053;-65
2022/07/09 06:55:54;;;;;;;8.52;5.68;;;;;;;30.97;38.08;102467.94;5011439;28;20242;-66
2022/07/09 06:58:20;;;;;;;10.70;6.43;;;;;;;30.81;38.43;102476.75;5011399;28;20196;-66
2022/07/09 07:00:45;;;;;;;6.18;5.20;;;;;;;30.71;38.57;102485.53;5011308;28;20395;-66
2022/07/09 07:03:10;;;;;;;9.88;6.28;;;;;;;30.91;38.21;102469.66;5011363;28;20085;-66
2022/07/09 07:05:36;;;;;;;10.23;5.88;;;;;;;30.99;38.13;102476.88;5011405;28;20022;-66
2022/07/09 07:08:01;;;;;;;9.25;5.97;;;;;;;30.90;38.08;102479.03;5012570;28;20450;-65
2022/07/09 07:10:27;;;;;;;11.25;7.05;;;;;;;30.93;37.94;102477.78;5011681;28;20030;-66
2022/07/09 07:12:54;;;;;;;11.07;5.93;;;;;;;31.05;37.54;102470.44;5012470;28;20033;-66
2022/07/09 07:15:19;;;;;;;9.70;4.93;;;;;;;31.07;37.87;102476.59;5011359;28;20042;-66
2022/07/09 07:17:45;;;;;;;9.93;5.65;;;;;;;31.02;37.60;102470.88;5011176;28;20041;-67
2022/07/09 07:20:10;;;;;;;10.45;4.88;;;;;;;30.99;37.69;102474.13;5011260;28;20022;-65
2022/07/09 07:22:36;;;;;;;9.85;5.28;;;;;;;31.02;37.91;102480.03;5011233;28;20036;-66
2022/07/09 07:25:01;;;;;;;11.02;5.22;;;;;;;30.96;38.04;102482.88;5011215;28;20030;-65
2022/07/09 07:27:27;;;;;;;5.03;4.25;;;;;;;30.90;37.73;102487.34;5011138;28;20073;-65
2022/07/09 07:29:52;;;;;;;8.60;4.70;;;;;;;30.88;37.59;102486.69;5011036;28;20133;-66
2022/07/09 07:32:18;;;;;;;12.05;4.82;;;;;;;30.84;38.27;102479.94;5011123;28;20029;-66
2022/07/09 07:34:43;;;;;;;10.05;3.80;;;;;;;30.75;37.43;102478.50;4994864;28;20045;-65
2022/07/09 07:37:08;;;;;;;9.70;3.58;;;;;;;30.69;37.38;102481.28;5011044;28;20076;-66
2022/07/09 07:39:34;;;;;;;6.45;2.95;;;;;;;31.19;37.14;102474.78;4994718;28;20042;-66
2022/07/09 07:41:59;;;;;;;6.78;3.63;;;;;;;31.23;37.18;102476.06;5012079;28;20077;-66
2022/07/09 07:44:24;;;;;;;6.78;3.58;;;;;;;31.45;37.03;102468.19;5012119;28;20045;-66
2022/07/09 07:46:50;;;;;;;7.75;3.72;;;;;;;31.90;36.88;102471.59;5010925;28;20113;-66
2022/07/09 07:49:15;;;;;;;4.57;2.78;;;;;;;32.05;36.36;102466.53;5009377;28;20049;-65
2022/07/09 07:51:42;;;;;;;3.88;2.83;;;;;;;32.30;36.36;102472.84;5010728;28;20503;-66
2022/07/09 07:54:08;;;;;;;5.60;3.38;;;;;;;32.33;35.75;102471.53;5012215;28;20045;-66
2022/07/09 07:56:36;;;;;;;7.60;3.03;;;;;;;32.49;36.16;102474.50;5010870;28;20026;-67
2022/07/09 07:59:01;;;;;;;3.88;2.92;;;;;;;32.74;35.49;102466.06;5010863;28;20044;-66
2022/07/09 08:01:27;;;;;;;6.28;2.83;;;;;;;33.09;34.68;102468.94;5010813;28;20480;-66
2022/07/09 08:03:52;;;;;;;8.90;2.72;;;;;;;33.37;35.11;102461.63;5015737;28;20025;-67
2022/07/09 08:06:18;;;;;;;5.65;2.83;;;;;;;33.56;34.37;102458.75;5014390;28;20431;-67
2022/07/09 08:08:43;;;;;;;4.70;2.83;;;;;;;33.25;35.95;102466.31;5014345;28;20030;-67
2022/07/09 08:11:08;;;;;;;3.20;2.63;;;;;;;33.56;34.38;102464.31;5014503;28;20096;-66
2022/07/09 08:13:34;;;;;;;6.95;2.88;;;;;;;33.73;34.41;102455.00;5014461;28;20109;-66
2022/07/09 08:16:01;;;;;;;5.43;2.60;;;;;;;33.54;35.15;102450.63;5014398;28;20041;-66
2022/07/09 08:18:27;;;;;;;2.58;1.90;;;;;;;33.35;35.33;102462.97;5014257;28;20037;-66
2022/07/09 08:20:52;;;;;;;5.88;2.05;;;;;;;33.31;35.13;102461.72;4997781;28;20415;-67
2022/07/09 08:23:18;;;;;;;3.85;1.73;;;;;;;33.47;34.76;102462.97;5014236;28;20030;-67
2022/07/09 08:25:43;;;;;;;6.97;2.17;;;;;;;33.52;34.84;102455.59;5030625;28;20395;-67
2022/07/09 08:28:09;;;;;;;2.70;1.77;;;;;;;33.52;34.99;102458.38;5030475;28;20026;-66
2022/07/09 08:30:36;;;;;;;5.75;2.25;;;;;;;33.46;34.81;102456.56;4981491;28;20053;-67
2022/07/09 08:33:02;;;;;;;6.47;2.10;;;;;;;33.42;34.41;102458.13;5013847;28;20403;-67
2022/07/09 08:35:27;;;;;;;2.78;1.60;;;;;;;33.42;33.79;102452.56;5013953;28;20033;-67
2022/07/09 08:37:53;;;;;;;4.25;1.67;;;;;;;33.86;33.80;102449.19;5013748;28;20044;-67
2022/07/09 08:40:19;;;;;;;4.20;1.80;;;;;;;34.27;33.40;102444.50;5013490;28;20026;-67
2022/07/09 08:42:44;;;;;;;1.40;0.93;;;;;;;34.50;33.41;102450.84;4997496;28;20030;-67
2022/07/09 08:45:14;;;;;;;2.10;1.17;;;;;;;34.93;32.24;102444.69;5013567;28;20405;-67
2022/07/09 08:47:41;;;;;;;3.05;1.50;;;;;;;35.39;31.43;102437.97;5013648;28;20065;-66
2022/07/09 08:50:06;;;;;;;1.73;0.93;;;;;;;35.71;32.19;102432.59;4997250;28;20107;-67
2022/07/09 08:52:32;;;;;;;3.83;1.45;;;;;;;36.06;31.61;102429.47;4997205;28;20041;-67
2022/07/09 08:54:58;;;;;;;4.28;2.13;;;;;;;36.09;31.68;102432.59;5014813;28;20084;-67
2022/07/09 08:57:23;;;;;;;4.22;1.38;;;;;;;35.96;31.67;102434.91;5013409;28;20088;-66
2022/07/09 08:59:48;;;;;;;2.17;1.55;;;;;;;35.97;31.81;102429.06;5014708;28;20542;-66
2022/07/09 09:02:14;;;;;;;4.80;1.70;;;;;;;35.73;31.75;102427.63;5014915;28;20383;-67
2022/07/09 09:04:40;;;;;;;3.95;1.33;;;;;;;35.77;31.79;102434.38;5013399;28;20038;-66
2022/07/09 09:07:16;;;;;;;2.78;1.40;;;;;;;35.74;31.62;102428.44;5013351;28;20065;-67
2022/07/09 09:09:42;;;;;;;2.03;1.40;;;;;;;35.97;31.44;102425.41;5013277;28;20041;-67
2022/07/09 09:12:08;;;;;;;7.45;1.95;;;;;;;35.66;31.28;102429.75;5013202;28;20018;-66
2022/07/09 09:14:33;;;;;;;3.65;2.08;;;;;;;36.19;30.91;102421.56;4996047;28;20033;-66
2022/07/09 09:17:04;;;;;;;4.55;1.92;;;;;;;36.51;30.58;102409.66;4980645;28;20069;-67
2022/07/09 09:19:29;;;;;;;5.97;1.60;;;;;;;36.17;30.51;102415.41;4996730;28;20032;-67
2022/07/09 09:21:55;;;;;;;2.30;1.30;;;;;;;36.07;31.18;102404.09;5014184;28;20435;-67
2022/07/09 09:24:29;;;;;;;4.97;1.20;;;;;;;36.56;30.14;102399.38;5013055;28;20041;-67
2022/07/09 09:27:01;;;;;;;3.90;1.40;;;;;;;36.80;30.22;102387.88;5013023;28;20434;-66
2022/07/09 09:29:27;;;;;;;3.10;1.55;;;;;;;36.91;30.43;102386.84;5012830;28;20050;-67
2022/07/09 09:31:53;;;;;;;3.47;1.20;;;;;;;36.93;29.70;102387.41;5013129;28;20029;-67
2022/07/09 09:34:19;;;;;;;2.60;1.25;;;;;;;36.97;29.47;102378.25;4996688;28;20038;-67
2022/07/09 09:36:46;;;;;;;2.88;1.15;;;;;;;37.01;30.39;102385.00;4996514;28;20025;-67
2022/07/09 09:39:18;;;;;;;1.80;1.00;;;;;;;36.95;29.48;102396.34;5014319;28;20042;-67
2022/07/09 09:41:48;;;;;;;2.25;1.10;;;;;;;36.98;29.79;102384.69;5013859;28;20057;-67
2022/07/09 09:44:23;;;;;;;2.92;1.15;;;;;;;36.90;29.71;102382.34;4996189;28;20060;-66
2022/07/09 09:46:49;;;;;;;2.90;1.17;;;;;;;36.90;29.66;102372.03;4996455;28;20029;-67
2022/07/09 09:49:15;;;;;;;3.85;1.20;;;;;;;36.98;29.10;102373.50;5012444;28;20144;-67
2022/07/09 09:51:47;;;;;;;1.05;0.98;;;;;;;37.26;29.21;102367.53;5012536;28;20434;-66
2022/07/09 09:54:14;;;;;;;2.75;1.48;;;;;;;37.19;29.53;102370.56;4996286;28;20037;-66
2022/07/09 09:56:39;;;;;;;5.15;1.42;;;;;;;36.84;29.87;102373.06;5012331;28;20029;-67
2022/07/09 09:59:05;;;;;;;1.45;1.30;;;;;;;36.70;29.90;102371.84;5012269;28;20030;-67
2022/07/09 10:01:30;;;;;;;2.35;1.00;;;;;;;36.88;29.45;102384.56;4995816;28;20030;-66
2022/07/09 10:03:56;;;;;;;0.90;0.82;;;;;;;37.17;28.61;102378.41;5012328;28;20060;-66
2022/07/09 10:06:22;;;;;;;1.52;0.90;;;;;;;37.37;28.76;102369.28;5012374;28;20030;-67
2022/07/09 10:08:47;;;;;;;3.42;1.50;;;;;;;37.18;28.81;102370.84;4995610;28;20538;-67
2022/07/09 10:11:13;;;;;;;3.95;1.48;;;;;;;36.82;29.06;102371.66;4995881;28;20026;-67
2022/07/09 10:13:49;;;;;;;2.60;0.90;;;;;;;36.55;29.32;102371.69;5012083;28;20143;-66
2022/07/09 10:16:14;;;;;;;3.25;1.00;;;;;;;36.35;29.28;102374.28;5013330;28;20026;-67
2022/07/09 10:18:50;;;;;;;2.65;1.05;;;;;;;36.10;28.90;102384.03;5012080;28;20026;-67
2022/07/09 10:21:16;;;;;;;1.65;1.00;;;;;;;35.92;29.31;102377.94;4995507;28;20160;-66
2022/07/09 10:23:48;;;;;;;1.98;1.05;;;;;;;35.89;29.17;102370.91;5012171;28;20176;-67
2022/07/09 10:26:14;;;;;;;1.75;0.95;;;;;;;35.86;29.43;102365.00;5011707;28;20033;-67
2022/07/09 10:28:42;;;;;;;3.88;1.00;;;;;;;35.75;29.81;102372.41;5011924;28;20030;-67
2022/07/09 10:31:08;;;;;;;1.27;0.73;;;;;;;35.79;29.64;102369.97;5012843;28;20046;-67
2022/07/09 10:33:35;;;;;;;2.15;1.25;;;;;;;35.61;29.76;102371.09;5011918;28;20482;-67
2022/07/09 10:36:11;;;;;;;2.42;1.45;;;;;;;35.54;29.53;102362.06;5011767;28;20369;-66
2022/07/09 10:38:38;;;;;;;1.45;0.90;;;;;;;35.74;29.48;102369.88;5011716;28;20038;-68
2022/07/09 10:41:04;;;;;;;3.05;0.85;;;;;;;35.66;29.63;102365.59;4995406;28;20049;-67
2022/07/09 10:43:41;;;;;;;2.42;1.00;;;;;;;35.90;29.63;102358.66;5011733;28;20107;-67
2022/07/09 10:46:11;;;;;;;2.55;1.30;;;;;;;36.54;28.88;102345.72;5011614;28;20025;-67
2022/07/09 10:48:37;;;;;;;2.13;1.10;;;;;;;36.74;28.98;102339.47;5011606;28;20038;-68
2022/07/09 10:51:02;;;;;;;3.95;1.10;;;;;;;36.44;29.32;102340.00;5011580;28;20025;-67
2022/07/09 10:53:29;;;;;;;1.05;0.93;;;;;;;36.18;29.71;102338.91;4995153;28;20044;-66
2022/07/09 10:55:54;;;;;;;2.30;1.10;;;;;;;35.94;29.90;102340.28;5011621;28;20028;-66
2022/07/09 10:58:20;;;;;;;4.32;1.25;;;;;;;35.67;29.86;102342.19;4995319;28;20029;-68
2022/07/09 11:00:56;;;;;;;1.60;1.10;;;;;;;35.54;29.36;102334.19;5011345;28;20037;-67
2022/07/09 11:03:30;;;;;;;1.98;0.70;;;;;;;35.86;29.62;102343.53;5012596;28;20084;-67
2022/07/09 11:05:56;;;;;;;1.65;1.20;;;;;;;35.73;29.66;102343.09;5011381;28;20077;-67
2022/07/09 11:08:22;;;;;;;3.03;0.93;;;;;;;36.22;29.21;102336.44;4994965;28;20087;-67
2022/07/09 11:10:48;;;;;;;2.22;1.13;;;;;;;36.00;29.20;102330.88;5011676;28;20499;-68
2022/07/09 11:13:13;;;;;;;1.65;1.33;;;;;;;35.80;29.20;102327.84;5012935;28;20028;-67
2022/07/09 11:15:39;;;;;;;5.72;1.17;;;;;;;35.84;29.89;102329.00;5011378;28;20057;-67
2022/07/09 11:18:09;;;;;;;2.78;1.52;;;;;;;36.53;28.82;102327.28;5011598;28;20037;-66